Skip Navigation LinksHome page > Weather > Current weather Skip Navigation Links

Current Weather

Seattle-Tacoma Intl, Seattle

For information only: do not use for flight planning or navigation.
Latest weather
Observation time Sunday, May 26, 2019 7:53 AM PDT
Local time Sunday, May 26, 2019 8:52 AM PDT
Flight conditions Marginal Visual Meteorological Conditions
Winds
Wind direction Northeast (50°)
Wind speed 8 mph
Visibility 10 mi.
Sky condition
Ceiling 2,100 ft. broken clouds
Cloud layer few clouds 1,100 ft.
Cloud layer broken clouds 2,100 ft.
Cloud layer overcast 8,500 ft.
Temperature 55°F
Dewpoint 49°F
Altimeter 29.88 in.Hg
Pressure change last 3 hours-0.01 in.Hg
Pressure rising more quickly
Derived measurements
Relative humidity 80%
Density altitude 383 ft.
Sea-level pressure 29.90 in.Hg
Remarks
Automated weather observing station with precipitation discriminator.
METAR KSEA 261453Z 05007KT 10SM FEW011 BKN021 OVC085 13/09 A2988 RMK AO2 SLP125 T01280094 53003

Settings

Location code

InnerDrive.Weather 4.0.6770.0 Release CLR 4.0.30319.42000
Copyright ©2018 Inner Drive Technology. All rights reserved. Portions Copyright ©1986-2018 David Braverman.

Find weather

Site navigation


Skip Navigation Links

Place info

Page info

PayPal - The safer, easier way to pay online!

Return home.

Copyright ©2019 Inner Drive Technology. Purveyors of fine, hand-crafted computer software. Page printed 2019-05-26T15:52:04 UTC.